createdAt,value
2022-11-14T00:03:59.135Z,0.27
2022-11-14T00:09:19.794Z,0.40
2022-11-14T00:14:40.438Z,0.30
2022-11-14T00:20:00.888Z,0.20
2022-11-14T00:25:21.603Z,0.27
2022-11-14T00:30:42.367Z,0.30
2022-11-14T00:36:03.201Z,0.33
2022-11-14T00:41:24.270Z,0.30
2022-11-14T00:46:44.926Z,0.40
2022-11-14T00:52:05.725Z,0.30
2022-11-14T00:57:26.245Z,0.30
2022-11-14T01:02:46.898Z,0.30
2022-11-14T01:08:07.668Z,0.20
2022-11-14T01:13:32.327Z,0.50
2022-11-14T01:18:52.926Z,0.40
2022-11-14T01:24:13.840Z,0.20
2022-11-14T01:29:34.684Z,0.20
2022-11-14T01:34:55.328Z,0.40
2022-11-14T01:40:16.430Z,0.20
2022-11-14T01:45:49.352Z,0.30
2022-11-14T01:51:36.536Z,0.20
2022-11-14T01:57:00.232Z,0.30
2022-11-14T02:02:24.858Z,0.27
2022-11-14T02:07:45.795Z,0.30
2022-11-14T02:13:07.338Z,0.40
2022-11-14T02:18:40.352Z,0.40
2022-11-14T02:24:01.194Z,0.40
2022-11-14T02:29:21.596Z,0.30
2022-11-14T02:34:42.499Z,0.47
2022-11-14T02:40:03.249Z,0.47
2022-11-14T02:45:24.776Z,0.30
2022-11-14T02:50:45.640Z,0.30
2022-11-14T02:56:07.005Z,0.50
2022-11-14T03:01:27.713Z,0.50
2022-11-14T03:06:48.405Z,0.40
2022-11-14T03:12:08.858Z,0.50
2022-11-14T03:17:32.813Z,0.53
2022-11-14T03:22:53.894Z,0.60
2022-11-14T03:28:14.521Z,0.30
2022-11-14T03:33:36.118Z,0.20
2022-11-14T03:38:56.908Z,0.60
2022-11-14T03:44:18.037Z,0.40
2022-11-14T03:49:38.908Z,0.40
2022-11-14T03:54:59.777Z,1.20
2022-11-14T04:00:20.650Z,0.73
2022-11-14T04:05:45.450Z,0.77
2022-11-14T04:11:06.449Z,0.57
2022-11-14T04:16:26.931Z,0.67
2022-11-14T04:21:47.731Z,0.50
2022-11-14T04:27:08.684Z,0.40
2022-11-14T04:32:29.470Z,0.70
2022-11-14T04:37:50.518Z,0.50
2022-11-14T04:43:11.051Z,0.50
2022-11-14T04:48:32.021Z,0.60
2022-11-14T04:53:52.939Z,0.80
2022-11-14T04:59:19.639Z,1.00
2022-11-14T05:04:41.442Z,1.03
2022-11-14T05:10:02.267Z,0.70
2022-11-14T05:15:23.085Z,1.10
2022-11-14T05:20:44.169Z,0.73
2022-11-14T05:26:07.206Z,1.33
2022-11-14T05:31:27.756Z,0.80
2022-11-14T05:36:48.463Z,0.87
2022-11-14T05:42:09.126Z,0.70
2022-11-14T05:47:30.008Z,0.73
2022-11-14T05:52:50.695Z,0.80
2022-11-14T05:58:11.419Z,0.60
2022-11-14T06:03:36.051Z,1.10
2022-11-14T06:08:56.740Z,0.77
2022-11-14T06:14:17.523Z,0.77
2022-11-14T06:19:38.252Z,0.93
2022-11-14T06:24:58.683Z,0.57
2022-11-14T06:30:19.620Z,0.70
2022-11-14T06:35:40.618Z,0.70
2022-11-14T06:41:12.461Z,0.70
2022-11-14T06:46:33.578Z,0.90
2022-11-14T06:51:54.530Z,0.77
2022-11-14T06:57:15.100Z,1.00
2022-11-14T07:02:35.627Z,0.93
2022-11-14T07:07:57.902Z,0.50
2022-11-14T07:13:18.726Z,0.90
2022-11-14T07:18:39.346Z,0.70
2022-11-14T07:24:00.341Z,0.80
2022-11-14T07:29:21.203Z,0.90
2022-11-14T07:34:41.775Z,0.70
2022-11-14T07:40:02.355Z,1.20
2022-11-14T07:45:22.822Z,1.00
2022-11-14T07:50:43.967Z,1.60
2022-11-14T07:56:06.404Z,1.00
2022-11-14T08:01:26.846Z,0.90
2022-11-14T08:06:47.754Z,1.93
2022-11-14T08:12:08.494Z,1.20
2022-11-14T08:17:29.386Z,1.30
2022-11-14T08:22:53.319Z,1.20
2022-11-14T08:28:14.028Z,0.90
2022-11-14T08:33:34.886Z,1.63
2022-11-14T08:39:01.484Z,0.73
2022-11-14T08:44:22.373Z,1.00
2022-11-14T08:49:42.968Z,1.00
2022-11-14T08:55:03.977Z,0.83
2022-11-14T09:00:25.136Z,1.40
2022-11-14T09:05:51.706Z,0.90
2022-11-14T09:11:14.350Z,1.27
2022-11-14T09:16:38.510Z,1.07
2022-11-14T09:21:59.158Z,0.70
2022-11-14T09:27:19.844Z,1.20
2022-11-14T09:32:40.668Z,1.00
2022-11-14T09:38:20.245Z,0.90
2022-11-14T09:43:59.287Z,1.00
2022-11-14T09:49:43.457Z,0.77
2022-11-14T09:55:20.069Z,0.70
2022-11-14T10:00:50.918Z,0.93
2022-11-14T10:06:15.832Z,0.80
2022-11-14T10:11:40.614Z,1.10
2022-11-14T10:17:15.244Z,1.13
2022-11-14T10:22:48.065Z,1.57
2022-11-14T10:29:04.245Z,1.37
2022-11-14T10:34:35.110Z,1.00
2022-11-14T10:40:03.687Z,1.20
2022-11-14T10:45:28.825Z,0.93
2022-11-14T10:50:55.118Z,1.00
2022-11-14T10:56:15.941Z,1.87
2022-11-14T11:01:45.403Z,1.60
2022-11-14T11:07:09.191Z,1.20
2022-11-14T11:12:44.792Z,1.00
2022-11-14T11:18:26.044Z,0.97
2022-11-14T11:23:51.331Z,0.93
2022-11-14T11:29:12.312Z,1.17
2022-11-14T11:34:33.683Z,1.30
2022-11-14T11:40:01.572Z,1.23
2022-11-14T11:45:22.998Z,0.80
2022-11-14T11:50:44.256Z,1.40
2022-11-14T11:56:07.578Z,1.10
2022-11-14T12:01:28.474Z,0.87
2022-11-14T12:07:09.407Z,1.13
2022-11-14T12:18:08.373Z,1.40
2022-11-14T12:23:51.024Z,1.20
2022-11-14T12:29:50.354Z,1.20
2022-11-14T12:35:18.118Z,2.90
2022-11-14T12:40:41.529Z,1.20
2022-11-14T12:46:12.137Z,1.30
2022-11-14T12:51:35.814Z,1.60
2022-11-14T12:57:00.390Z,1.30
2022-11-14T13:03:00.582Z,2.30
2022-11-14T13:08:52.132Z,1.13
2022-11-14T13:14:31.811Z,0.83
2022-11-14T13:20:11.502Z,0.70
2022-11-14T13:25:32.475Z,0.60
2022-11-14T13:31:25.469Z,0.90
2022-11-14T13:37:05.139Z,0.60
2022-11-14T13:42:50.196Z,0.73
2022-11-14T13:48:53.364Z,1.23
2022-11-14T13:54:18.032Z,1.00
2022-11-14T13:59:51.392Z,1.23
2022-11-14T14:05:24.904Z,1.40
2022-11-14T14:11:10.137Z,1.80
2022-11-14T14:16:45.874Z,1.23
2022-11-14T14:22:25.119Z,2.00
2022-11-14T14:27:56.434Z,1.60
2022-11-14T14:33:17.966Z,1.70
2022-11-14T14:38:39.714Z,2.17
2022-11-14T14:44:00.935Z,1.60
2022-11-14T14:49:35.350Z,1.63
2022-11-14T14:54:56.893Z,2.43
2022-11-14T15:00:22.100Z,2.20
2022-11-14T15:05:43.000Z,1.30
2022-11-14T15:11:04.594Z,1.10
2022-11-14T15:16:26.440Z,1.60
2022-11-14T15:22:01.533Z,1.70
2022-11-14T15:27:22.352Z,1.50
2022-11-14T15:32:51.584Z,2.37
2022-11-14T15:43:55.459Z,1.90
2022-11-14T15:49:20.487Z,1.57
2022-11-14T15:54:41.896Z,1.87
2022-11-14T16:00:03.300Z,1.93
2022-11-14T16:05:29.182Z,2.10
2022-11-14T16:10:49.889Z,1.83
2022-11-14T16:16:10.850Z,2.00
2022-11-14T16:21:32.312Z,2.50
2022-11-14T16:26:53.025Z,2.60
2022-11-14T16:32:14.603Z,2.00
2022-11-14T16:37:35.790Z,2.57
2022-11-14T16:42:59.008Z,1.93
2022-11-14T16:48:20.000Z,1.93
2022-11-14T16:53:40.919Z,1.80
2022-11-14T16:59:02.018Z,1.43
2022-11-14T17:04:23.045Z,2.47
2022-11-14T17:09:44.098Z,1.83
2022-11-14T17:15:06.047Z,2.10
2022-11-14T17:20:27.143Z,1.70
2022-11-14T17:25:48.338Z,1.40
2022-11-14T17:31:17.731Z,1.27
2022-11-14T17:36:39.134Z,1.10
2022-11-14T17:42:00.290Z,1.47
2022-11-14T17:47:21.550Z,1.30
2022-11-14T17:52:42.765Z,1.00
2022-11-14T17:58:03.852Z,1.30
2022-11-14T18:03:25.674Z,2.20
2022-11-14T18:08:47.605Z,0.90
2022-11-14T18:14:08.538Z,1.70
2022-11-14T18:19:29.480Z,1.07
2022-11-14T18:24:50.505Z,1.10
2022-11-14T18:30:39.362Z,1.00
2022-11-14T18:36:00.892Z,1.23
2022-11-14T18:41:22.579Z,1.30
2022-11-14T18:46:43.576Z,1.23
2022-11-14T18:52:10.317Z,0.90
2022-11-14T18:57:36.518Z,0.80
2022-11-14T19:03:00.066Z,1.87
2022-11-14T19:08:23.188Z,1.37
2022-11-14T19:13:44.112Z,1.00
2022-11-14T19:19:06.559Z,2.07
2022-11-14T19:24:27.254Z,1.30
2022-11-14T19:29:48.318Z,0.80
2022-11-14T19:35:09.673Z,1.10
2022-11-14T19:40:31.178Z,1.30
2022-11-14T19:45:51.955Z,0.87
2022-11-14T19:51:14.499Z,0.77
2022-11-14T19:56:35.064Z,0.87
2022-11-14T20:01:56.366Z,1.40
2022-11-14T20:07:17.383Z,0.90
2022-11-14T20:12:37.847Z,1.17
2022-11-14T20:17:58.423Z,1.40
2022-11-14T20:23:19.156Z,2.00
2022-11-14T20:28:41.082Z,1.33
2022-11-14T20:34:02.026Z,1.00
2022-11-14T20:39:23.254Z,1.03
2022-11-14T20:44:43.943Z,0.70
2022-11-14T20:50:05.892Z,0.77
2022-11-14T20:55:26.544Z,0.90
2022-11-14T21:00:49.866Z,0.70
2022-11-14T21:06:15.778Z,0.90
2022-11-14T21:11:36.743Z,0.97
2022-11-14T21:16:57.646Z,0.90
2022-11-14T21:22:18.487Z,0.80
2022-11-14T21:27:39.259Z,1.07
2022-11-14T21:33:00.091Z,1.10
2022-11-14T21:38:21.116Z,1.07
2022-11-14T21:43:42.325Z,0.90
2022-11-14T21:49:03.333Z,1.67
2022-11-14T21:54:24.206Z,1.40
2022-11-14T21:59:45.051Z,4.40
2022-11-14T22:05:07.260Z,1.50
2022-11-14T22:10:28.015Z,0.73
2022-11-14T22:15:48.647Z,0.50
2022-11-14T22:21:09.683Z,0.73
2022-11-14T22:26:31.093Z,0.80
2022-11-14T22:31:53.169Z,0.63
2022-11-14T22:37:13.856Z,0.70
2022-11-14T22:42:34.668Z,1.27
2022-11-14T22:47:58.978Z,0.77
2022-11-14T22:53:19.597Z,0.73
2022-11-14T22:58:41.865Z,1.07
2022-11-14T23:04:05.077Z,0.70
2022-11-14T23:09:27.431Z,0.60
2022-11-14T23:14:48.365Z,0.43
2022-11-14T23:20:15.113Z,1.30
2022-11-14T23:25:38.138Z,1.17
2022-11-14T23:30:59.832Z,0.80
2022-11-14T23:36:20.967Z,0.63
2022-11-14T23:41:41.757Z,0.60
2022-11-14T23:47:02.797Z,0.63
2022-11-14T23:52:23.642Z,0.50
2022-11-14T23:57:44.496Z,1.90
